createdAt,value
2023-04-15T00:00:10.043Z,87.42
2023-04-15T00:02:42.130Z,87.53
2023-04-15T00:05:13.665Z,87.60
2023-04-15T00:07:46.905Z,88.00
2023-04-15T00:10:18.196Z,87.90
2023-04-15T00:12:49.474Z,87.41
2023-04-15T00:15:20.754Z,88.04
2023-04-15T00:17:52.211Z,87.79
2023-04-15T00:20:23.540Z,88.11
2023-04-15T00:22:54.905Z,87.74
2023-04-15T00:25:26.344Z,88.13
2023-04-15T00:27:57.653Z,88.12
2023-04-15T00:30:28.927Z,87.79
2023-04-15T00:33:02.292Z,87.76
2023-04-15T00:35:33.668Z,88.02
2023-04-15T00:38:07.142Z,88.10
2023-04-15T00:40:38.628Z,88.15
2023-04-15T00:43:10.105Z,88.13
2023-04-15T00:45:41.751Z,88.42
2023-04-15T00:48:13.399Z,89.08
2023-04-15T00:50:44.756Z,88.38
2023-04-15T00:53:16.150Z,88.90
2023-04-15T00:55:47.473Z,88.92
2023-04-15T00:58:19.149Z,88.96
2023-04-15T01:00:54.192Z,89.67
2023-04-15T01:03:25.734Z,89.77
2023-04-15T01:06:00.923Z,90.03
2023-04-15T01:08:34.359Z,90.20
2023-04-15T01:11:06.036Z,90.45
2023-04-15T01:13:37.316Z,90.68
2023-04-15T01:16:09.184Z,90.89
2023-04-15T01:18:41.476Z,90.59
2023-04-15T01:21:13.931Z,91.34
2023-04-15T01:23:47.721Z,91.21
2023-04-15T01:26:19.826Z,91.38
2023-04-15T01:28:51.669Z,91.47
2023-04-15T01:31:23.114Z,91.62
2023-04-15T01:33:54.424Z,91.97
2023-04-15T01:36:25.686Z,92.31
2023-04-15T01:38:57.333Z,92.67
2023-04-15T01:41:29.032Z,92.59
2023-04-15T01:44:00.562Z,93.13
2023-04-15T01:46:32.151Z,92.99
2023-04-15T01:49:03.604Z,93.21
2023-04-15T01:51:34.871Z,93.86
2023-04-15T01:54:06.433Z,94.02
2023-04-15T01:56:38.803Z,94.10
2023-04-15T01:59:11.184Z,94.59
2023-04-15T02:01:42.503Z,94.75
2023-04-15T02:04:16.596Z,95.27
2023-04-15T02:06:48.913Z,95.25
2023-04-15T02:09:20.454Z,95.87
2023-04-15T02:11:53.586Z,95.89
2023-04-15T02:14:24.929Z,96.07
2023-04-15T02:16:56.474Z,96.36
2023-04-15T02:19:27.837Z,96.85
2023-04-15T02:22:00.057Z,96.97
2023-04-15T02:24:31.545Z,96.76
2023-04-15T02:27:03.499Z,96.83
2023-04-15T02:29:34.795Z,96.99
2023-04-15T02:32:06.270Z,97.44
2023-04-15T02:34:41.186Z,97.59
2023-04-15T02:37:13.517Z,97.87
2023-04-15T02:39:45.127Z,97.72
2023-04-15T02:42:16.534Z,97.79
2023-04-15T02:44:47.802Z,97.61
2023-04-15T02:47:19.110Z,97.96
2023-04-15T02:49:50.551Z,97.99
2023-04-15T02:52:21.805Z,98.41
2023-04-15T02:54:57.321Z,98.19
2023-04-15T02:57:29.489Z,98.60
2023-04-15T03:00:00.839Z,98.81
2023-04-15T03:02:39.382Z,99.11
2023-04-15T03:05:14.276Z,99.10
2023-04-15T03:07:45.710Z,98.66
2023-04-15T03:10:16.996Z,99.35
2023-04-15T03:12:48.803Z,99.39
2023-04-15T03:15:20.084Z,99.20
2023-04-15T03:17:51.516Z,99.43
2023-04-15T03:20:23.355Z,99.48
2023-04-15T03:22:54.691Z,99.57
2023-04-15T03:25:26.253Z,99.66
2023-04-15T03:27:58.259Z,99.65
2023-04-15T03:30:29.533Z,99.89
2023-04-15T03:33:00.932Z,100.00
2023-04-15T03:35:32.369Z,99.61
2023-04-15T03:38:03.909Z,99.66
2023-04-15T03:40:35.504Z,100.00
2023-04-15T03:43:07.153Z,100.00
2023-04-15T03:45:38.470Z,100.00
2023-04-15T03:48:17.177Z,100.00
2023-04-15T03:50:48.828Z,100.00
2023-04-15T03:53:21.329Z,100.00
2023-04-15T03:55:52.628Z,100.00
2023-04-15T03:58:24.050Z,100.00
2023-04-15T04:00:55.465Z,100.00
2023-04-15T04:03:27.415Z,100.00
2023-04-15T04:05:59.228Z,100.00
2023-04-15T04:08:30.479Z,100.00
2023-04-15T04:11:01.887Z,100.00
2023-04-15T04:13:33.281Z,100.00
2023-04-15T04:16:04.895Z,100.00
2023-04-15T04:18:36.321Z,100.00
2023-04-15T04:21:07.668Z,100.00
2023-04-15T04:23:39.056Z,100.00
2023-04-15T04:26:10.452Z,100.00
2023-04-15T04:28:41.945Z,100.00
2023-04-15T04:31:13.231Z,100.00
2023-04-15T04:33:44.613Z,100.00
2023-04-15T04:36:16.349Z,100.00
2023-04-15T04:38:47.748Z,100.00
2023-04-15T04:41:19.048Z,100.00
2023-04-15T04:43:50.304Z,100.00
2023-04-15T04:46:21.630Z,100.00
2023-04-15T04:48:52.972Z,100.00
2023-04-15T04:51:24.458Z,100.00
2023-04-15T04:53:56.574Z,100.00
2023-04-15T04:56:27.862Z,100.00
2023-04-15T04:58:59.251Z,100.00
2023-04-15T05:01:30.737Z,100.00
2023-04-15T05:04:02.247Z,100.00
2023-04-15T05:06:33.963Z,100.00
2023-04-15T05:09:05.295Z,100.00
2023-04-15T05:11:36.664Z,100.00
2023-04-15T05:14:08.084Z,100.00
2023-04-15T05:16:39.347Z,100.00
2023-04-15T05:19:10.754Z,100.00
2023-04-15T05:21:42.379Z,100.00
2023-04-15T05:24:13.687Z,100.00
2023-04-15T05:26:44.983Z,100.00
2023-04-15T05:29:16.674Z,100.00
2023-04-15T05:31:47.941Z,100.00
2023-04-15T05:34:19.224Z,100.00
2023-04-15T05:36:50.546Z,100.00
2023-04-15T05:39:21.940Z,100.00
2023-04-15T05:41:53.502Z,100.00
2023-04-15T05:44:24.846Z,100.00
2023-04-15T05:46:56.148Z,100.00
2023-04-15T05:49:27.507Z,100.00
2023-04-15T05:51:59.131Z,100.00
2023-04-15T05:54:30.430Z,100.00
2023-04-15T05:57:01.720Z,100.00
2023-04-15T05:59:33.148Z,100.00
2023-04-15T06:02:04.669Z,100.00
2023-04-15T06:04:36.863Z,100.00
2023-04-15T06:07:08.218Z,100.00
2023-04-15T06:09:39.575Z,100.00
2023-04-15T06:12:12.231Z,100.00
2023-04-15T06:14:43.629Z,100.00
2023-04-15T06:17:14.981Z,100.00
2023-04-15T06:19:46.319Z,100.00
2023-04-15T06:22:17.637Z,100.00
2023-04-15T06:24:52.997Z,100.00
2023-04-15T06:27:24.414Z,100.00
2023-04-15T06:29:55.703Z,100.00
2023-04-15T06:32:27.076Z,100.00
2023-04-15T06:34:58.494Z,100.00
2023-04-15T06:37:29.845Z,100.00
2023-04-15T06:40:01.152Z,100.00
2023-04-15T06:42:32.619Z,100.00
2023-04-15T06:45:04.269Z,100.00
2023-04-15T06:47:35.692Z,100.00
2023-04-15T06:50:07.631Z,100.00
2023-04-15T06:52:39.189Z,100.00
2023-04-15T06:55:10.744Z,100.00
2023-04-15T06:57:42.177Z,100.00
2023-04-15T07:00:14.093Z,100.00
2023-04-15T07:02:45.426Z,100.00
2023-04-15T07:05:17.049Z,100.00
2023-04-15T07:07:48.294Z,100.00
2023-04-15T07:10:20.315Z,100.00
2023-04-15T07:12:52.462Z,100.00
2023-04-15T07:15:23.882Z,100.00
2023-04-15T07:17:56.025Z,100.00
2023-04-15T07:20:27.363Z,100.00
2023-04-15T07:22:58.902Z,100.00
2023-04-15T07:25:30.333Z,100.00
2023-04-15T07:28:02.431Z,100.00
2023-04-15T07:30:34.446Z,100.00
2023-04-15T07:33:05.758Z,100.00
2023-04-15T07:35:37.021Z,100.00
2023-04-15T07:38:08.341Z,100.00
2023-04-15T07:40:40.378Z,100.00
2023-04-15T07:43:11.960Z,100.00
2023-04-15T07:45:43.516Z,100.00
2023-04-15T07:48:14.952Z,100.00
2023-04-15T07:50:46.460Z,100.00
2023-04-15T07:53:17.756Z,100.00
2023-04-15T07:55:49.080Z,100.00
2023-04-15T07:58:20.476Z,100.00
2023-04-15T08:00:51.751Z,100.00
2023-04-15T08:03:23.683Z,100.00
2023-04-15T08:05:55.105Z,100.00
2023-04-15T08:08:26.476Z,100.00
2023-04-15T08:10:58.557Z,100.00
2023-04-15T08:13:30.976Z,100.00
2023-04-15T08:16:19.237Z,100.00
2023-04-15T08:18:52.226Z,100.00
2023-04-15T08:21:24.501Z,100.00
2023-04-15T08:23:56.484Z,100.00
2023-04-15T08:26:27.819Z,100.00
2023-04-15T08:28:59.220Z,100.00
2023-04-15T08:31:30.782Z,100.00
2023-04-15T08:34:02.221Z,100.00
2023-04-15T08:36:33.645Z,100.00
2023-04-15T08:39:05.233Z,100.00
2023-04-15T08:41:50.604Z,100.00
2023-04-15T08:44:23.819Z,100.00
2023-04-15T08:46:57.032Z,100.00
2023-04-15T08:49:29.458Z,100.00
2023-04-15T08:52:01.436Z,100.00
2023-04-15T08:54:33.828Z,100.00
2023-04-15T08:57:06.021Z,100.00
2023-04-15T08:59:37.393Z,100.00
2023-04-15T09:02:09.260Z,100.00
2023-04-15T09:04:40.561Z,100.00
2023-04-15T09:07:11.983Z,100.00
2023-04-15T09:09:43.370Z,100.00
2023-04-15T09:12:14.709Z,100.00
2023-04-15T09:14:47.275Z,100.00
2023-04-15T09:17:20.969Z,100.00
2023-04-15T09:20:08.711Z,100.00
2023-04-15T09:22:43.638Z,100.00
2023-04-15T09:25:14.858Z,100.00
2023-04-15T09:27:49.835Z,100.00
2023-04-15T09:30:21.233Z,100.00
2023-04-15T09:32:57.353Z,100.00
2023-04-15T09:35:28.751Z,100.00
2023-04-15T09:38:03.996Z,100.00
2023-04-15T09:40:36.302Z,100.00
2023-04-15T09:43:09.626Z,100.00
2023-04-15T09:45:51.229Z,100.00
2023-04-15T09:48:27.013Z,100.00
2023-04-15T09:51:00.440Z,100.00
2023-04-15T09:53:34.848Z,100.00
2023-04-15T09:56:07.898Z,100.00
2023-04-15T09:58:39.342Z,100.00
2023-04-15T10:01:11.597Z,100.00
2023-04-15T10:03:44.115Z,100.00
2023-04-15T10:06:16.326Z,100.00
2023-04-15T10:08:48.279Z,100.00
2023-04-15T10:11:23.174Z,100.00
2023-04-15T10:13:56.147Z,100.00
2023-04-15T10:16:30.897Z,100.00
2023-04-15T10:19:04.346Z,100.00
2023-04-15T10:21:37.642Z,100.00
2023-04-15T10:24:09.589Z,100.00
2023-04-15T10:26:41.266Z,100.00
2023-04-15T10:29:12.918Z,100.00
2023-04-15T10:31:44.913Z,100.00
2023-04-15T10:34:16.979Z,100.00
2023-04-15T10:36:48.319Z,100.00
2023-04-15T10:39:34.729Z,100.00
2023-04-15T10:42:17.283Z,100.00
2023-04-15T10:44:51.852Z,100.00
2023-04-15T10:47:23.258Z,100.00
2023-04-15T10:50:00.335Z,100.00
2023-04-15T10:52:31.775Z,100.00
2023-04-15T10:55:04.518Z,100.00
2023-04-15T10:57:38.968Z,100.00
2023-04-15T11:00:15.721Z,100.00
2023-04-15T11:03:08.159Z,100.00
2023-04-15T11:05:39.628Z,100.00
2023-04-15T11:08:12.282Z,100.00
2023-04-15T11:10:43.523Z,100.00
2023-04-15T11:13:17.930Z,100.00
2023-04-15T11:15:49.853Z,100.00
2023-04-15T11:18:23.666Z,100.00
2023-04-15T11:21:06.306Z,100.00
2023-04-15T11:23:47.235Z,100.00
2023-04-15T11:26:18.882Z,100.00
2023-04-15T11:28:50.170Z,100.00
2023-04-15T11:31:23.859Z,100.00
2023-04-15T11:33:58.830Z,100.00
2023-04-15T11:36:31.902Z,100.00
2023-04-15T11:39:07.274Z,100.00
2023-04-15T11:41:38.571Z,100.00
2023-04-15T11:44:17.872Z,100.00
2023-04-15T11:46:49.228Z,100.00
2023-04-15T11:49:31.188Z,100.00
2023-04-15T11:52:11.197Z,100.00
2023-04-15T11:54:42.620Z,100.00
2023-04-15T11:57:13.928Z,100.00
2023-04-15T11:59:46.295Z,100.00
2023-04-15T12:02:17.836Z,100.00
2023-04-15T12:04:49.242Z,100.00
2023-04-15T12:07:20.877Z,100.00
2023-04-15T12:09:56.833Z,100.00
2023-04-15T12:12:28.904Z,100.00
2023-04-15T12:15:00.260Z,100.00
2023-04-15T12:17:51.869Z,100.00
2023-04-15T12:20:25.913Z,100.00
2023-04-15T12:23:05.997Z,100.00
2023-04-15T12:25:37.415Z,100.00
2023-04-15T12:28:12.024Z,100.00
2023-04-15T12:30:51.531Z,100.00
2023-04-15T12:33:22.909Z,100.00
2023-04-15T12:35:54.210Z,100.00
2023-04-15T12:38:25.533Z,100.00
2023-04-15T12:40:57.954Z,100.00
2023-04-15T12:43:29.258Z,100.00
2023-04-15T12:46:00.607Z,100.00
2023-04-15T12:48:33.172Z,100.00
2023-04-15T12:51:05.739Z,100.00
2023-04-15T12:53:37.251Z,100.00
2023-04-15T12:56:08.700Z,100.00
2023-04-15T12:58:40.059Z,100.00
2023-04-15T13:01:11.599Z,100.00
2023-04-15T13:03:43.325Z,100.00
2023-04-15T13:06:14.745Z,100.00
2023-04-15T13:08:57.407Z,100.00
2023-04-15T13:11:36.606Z,100.00
2023-04-15T13:14:09.280Z,100.00
2023-04-15T13:16:41.284Z,100.00
2023-04-15T13:19:12.609Z,100.00
2023-04-15T13:21:44.053Z,100.00
2023-04-15T13:24:15.562Z,100.00
2023-04-15T13:26:49.690Z,100.00
2023-04-15T13:29:22.250Z,100.00
2023-04-15T13:31:53.688Z,100.00
2023-04-15T13:34:25.292Z,100.00
2023-04-15T13:36:56.633Z,100.00
2023-04-15T13:39:27.914Z,100.00
2023-04-15T13:41:59.509Z,100.00
2023-04-15T13:44:31.088Z,100.00
2023-04-15T13:47:02.467Z,100.00
2023-04-15T13:49:33.779Z,100.00
2023-04-15T13:52:05.326Z,100.00
2023-04-15T13:54:37.684Z,99.90
2023-04-15T13:57:09.493Z,100.00
2023-04-15T13:59:41.042Z,99.71
2023-04-15T14:02:12.437Z,99.74
2023-04-15T14:04:43.826Z,100.00
2023-04-15T14:07:15.265Z,100.00
2023-04-15T14:09:48.109Z,99.59
2023-04-15T14:12:19.502Z,99.65
2023-04-15T14:14:50.812Z,98.46
2023-04-15T14:17:22.357Z,98.23
2023-04-15T14:19:53.721Z,99.34
2023-04-15T14:22:25.062Z,99.31
2023-04-15T14:24:56.585Z,98.77
2023-04-15T14:27:28.537Z,98.39
2023-04-15T14:29:59.960Z,97.78
2023-04-15T14:32:31.393Z,97.45
2023-04-15T14:35:04.222Z,97.61
2023-04-15T14:37:35.904Z,98.53
2023-04-15T14:40:08.066Z,98.02
2023-04-15T14:42:39.347Z,98.74
2023-04-15T14:45:10.893Z,97.92
2023-04-15T14:47:42.264Z,97.51
2023-04-15T14:50:13.573Z,98.51
2023-04-15T14:52:45.364Z,98.29
2023-04-15T14:55:16.901Z,97.74
2023-04-15T14:57:48.207Z,98.18
2023-04-15T15:00:19.596Z,97.28
2023-04-15T15:02:51.032Z,97.51
2023-04-15T15:05:22.672Z,97.72
2023-04-15T15:07:54.057Z,97.58
2023-04-15T15:10:43.958Z,97.42
2023-04-15T15:13:17.777Z,97.62
2023-04-15T15:15:49.510Z,97.62
2023-04-15T15:18:21.500Z,97.28
2023-04-15T15:20:52.854Z,96.70
2023-04-15T15:23:24.322Z,96.88
2023-04-15T15:25:56.015Z,97.04
2023-04-15T15:28:27.323Z,96.61
2023-04-15T15:30:58.736Z,96.48
2023-04-15T15:33:30.387Z,97.12
2023-04-15T15:36:02.195Z,95.97
2023-04-15T15:38:33.569Z,95.46
2023-04-15T15:41:05.205Z,95.69
2023-04-15T15:43:36.861Z,95.83
2023-04-15T15:46:08.247Z,95.57
2023-04-15T15:48:39.607Z,95.57
2023-04-15T15:51:11.002Z,94.40
2023-04-15T15:53:42.466Z,94.68
2023-04-15T15:56:14.064Z,93.51
2023-04-15T15:58:45.465Z,92.97
2023-04-15T16:01:16.845Z,92.72
2023-04-15T16:03:48.378Z,91.57
2023-04-15T16:06:19.708Z,90.63
2023-04-15T16:08:50.974Z,90.50
2023-04-15T16:11:23.152Z,90.33
2023-04-15T16:13:54.636Z,89.72
2023-04-15T16:16:26.035Z,89.57
2023-04-15T16:18:57.681Z,89.42
2023-04-15T16:21:29.001Z,89.02
2023-04-15T16:24:00.370Z,87.30
2023-04-15T16:26:31.670Z,88.12
2023-04-15T16:29:03.923Z,88.54
2023-04-15T16:31:37.262Z,88.25
2023-04-15T16:34:09.007Z,88.08
2023-04-15T16:36:40.553Z,88.03
2023-04-15T16:39:11.989Z,88.00
2023-04-15T16:41:43.327Z,88.04
2023-04-15T16:44:14.803Z,88.02
2023-04-15T16:46:46.237Z,87.99
2023-04-15T16:49:17.549Z,87.99
2023-04-15T16:51:48.838Z,87.71
2023-04-15T16:54:20.164Z,88.03
2023-04-15T16:56:51.417Z,87.86
2023-04-15T16:59:23.089Z,87.79
2023-04-15T17:01:55.504Z,87.07
2023-04-15T17:04:28.348Z,87.78
2023-04-15T17:06:59.746Z,87.49
2023-04-15T17:09:31.073Z,87.47
2023-04-15T17:12:03.905Z,88.13
2023-04-15T17:14:35.411Z,87.37
2023-04-15T17:17:06.773Z,87.97
2023-04-15T17:19:38.397Z,87.73
2023-04-15T17:22:09.663Z,87.71
2023-04-15T17:24:40.929Z,88.12
2023-04-15T17:27:12.243Z,88.08
2023-04-15T17:29:43.514Z,88.31
2023-04-15T17:32:14.778Z,88.11
2023-04-15T17:34:50.713Z,88.21
2023-04-15T17:37:22.699Z,88.24
2023-04-15T17:39:54.033Z,88.45
2023-04-15T17:42:26.251Z,88.45
2023-04-15T17:44:57.656Z,88.80
2023-04-15T17:47:28.994Z,88.80
2023-04-15T17:50:00.340Z,88.73
2023-04-15T17:52:31.597Z,89.20
2023-04-15T17:55:03.048Z,89.21
2023-04-15T17:57:34.345Z,88.10
2023-04-15T18:00:06.891Z,88.84
2023-04-15T18:02:38.413Z,89.59
2023-04-15T18:05:10.379Z,89.58
2023-04-15T18:07:41.768Z,89.73
2023-04-15T18:10:13.093Z,89.92
2023-04-15T18:12:44.360Z,89.61
2023-04-15T18:15:15.846Z,89.87
2023-04-15T18:17:48.000Z,90.27
2023-04-15T18:20:19.530Z,89.94
2023-04-15T18:22:51.340Z,90.27
2023-04-15T18:25:22.668Z,90.58
2023-04-15T18:27:54.961Z,90.81
2023-04-15T18:30:26.570Z,90.62
2023-04-15T18:32:57.894Z,90.76
2023-04-15T18:35:32.229Z,91.16
2023-04-15T18:38:03.546Z,91.20
2023-04-15T18:40:35.438Z,91.30
2023-04-15T18:43:06.821Z,91.44
2023-04-15T18:45:38.328Z,91.22
2023-04-15T18:48:09.797Z,91.46
2023-04-15T18:50:42.607Z,91.61
2023-04-15T18:53:14.390Z,91.41
2023-04-15T18:55:46.540Z,91.39
2023-04-15T18:58:17.929Z,91.28
2023-04-15T19:00:49.230Z,91.66
2023-04-15T19:03:20.704Z,91.51
2023-04-15T19:05:52.114Z,91.77
2023-04-15T19:08:23.411Z,91.74
2023-04-15T19:10:54.725Z,91.56
2023-04-15T19:13:26.242Z,91.78
2023-04-15T19:15:57.590Z,92.04
2023-04-15T19:18:28.995Z,92.07
2023-04-15T19:21:00.534Z,92.13
2023-04-15T19:23:32.086Z,92.19
2023-04-15T19:26:03.497Z,92.01
2023-04-15T19:28:34.909Z,92.13
2023-04-15T19:31:06.618Z,92.10
2023-04-15T19:33:38.218Z,92.51
2023-04-15T19:36:09.977Z,92.23
2023-04-15T19:38:41.338Z,92.36
2023-04-15T19:41:12.994Z,92.91
2023-04-15T19:43:44.362Z,92.92
2023-04-15T19:46:15.700Z,92.62
2023-04-15T19:48:47.148Z,92.55
2023-04-15T19:51:18.769Z,92.87
2023-04-15T19:53:50.868Z,92.88
2023-04-15T19:56:23.811Z,92.85
2023-04-15T19:58:55.229Z,92.52
2023-04-15T20:01:27.136Z,92.93
2023-04-15T20:03:58.707Z,93.01
2023-04-15T20:06:30.254Z,92.76
2023-04-15T20:09:01.980Z,93.11
2023-04-15T20:12:44.881Z,93.05
2023-04-15T20:14:25.600Z,92.95
2023-04-15T20:16:56.912Z,93.12
2023-04-15T20:19:28.198Z,92.93
2023-04-15T20:21:59.572Z,93.13
2023-04-15T20:24:30.906Z,93.26
2023-04-15T20:27:03.797Z,92.96
2023-04-15T20:29:35.962Z,93.30
2023-04-15T20:32:11.121Z,93.40
2023-04-15T20:34:42.532Z,93.52
2023-04-15T20:37:13.842Z,93.62
2023-04-15T20:39:45.129Z,93.56
2023-04-15T20:42:17.287Z,93.46
2023-04-15T20:44:48.647Z,93.31
2023-04-15T20:47:20.392Z,93.41
2023-04-15T20:49:51.945Z,93.85
2023-04-15T20:52:23.390Z,93.53
2023-04-15T20:54:54.694Z,93.40
2023-04-15T20:57:26.119Z,93.87
2023-04-15T20:59:57.582Z,93.53
2023-04-15T21:02:29.199Z,93.78
2023-04-15T21:05:00.739Z,93.67
2023-04-15T21:07:32.037Z,94.07
2023-04-15T21:10:03.466Z,93.60
2023-04-15T21:12:34.852Z,94.08
2023-04-15T21:15:07.169Z,93.86
2023-04-15T21:17:39.057Z,93.68
2023-04-15T21:20:11.122Z,93.82
2023-04-15T21:22:42.489Z,94.12
2023-04-15T21:25:14.126Z,94.03
2023-04-15T21:27:45.793Z,93.65
2023-04-15T21:30:17.510Z,93.50
2023-04-15T21:32:49.222Z,94.13
2023-04-15T21:35:21.564Z,93.75
2023-04-15T21:37:54.463Z,94.07
2023-04-15T21:40:26.595Z,94.21
2023-04-15T21:43:02.905Z,93.65
2023-04-15T21:45:35.449Z,93.89
2023-04-15T21:48:08.888Z,93.97
2023-04-15T21:50:40.839Z,93.92
2023-04-15T21:53:14.739Z,94.51
2023-04-15T21:55:46.362Z,94.31
2023-04-15T21:58:18.118Z,94.42
2023-04-15T22:00:49.831Z,94.67
2023-04-15T22:03:21.557Z,93.80
2023-04-15T22:05:52.938Z,93.89
2023-04-15T22:08:24.307Z,94.46
2023-04-15T22:10:55.638Z,94.40
2023-04-15T22:13:26.900Z,94.28
2023-04-15T22:15:58.322Z,93.83
2023-04-15T22:18:29.666Z,94.33
2023-04-15T22:21:01.511Z,95.04
2023-04-15T22:23:32.925Z,94.80
2023-04-15T22:26:05.372Z,94.81
2023-04-15T22:28:36.676Z,94.96
2023-04-15T22:31:08.118Z,94.59
2023-04-15T22:33:39.480Z,94.80
2023-04-15T22:36:11.112Z,94.79
2023-04-15T22:38:42.492Z,95.24
2023-04-15T22:41:13.829Z,95.11
2023-04-15T22:43:46.344Z,95.30
2023-04-15T22:46:17.648Z,95.23
2023-04-15T22:48:49.014Z,95.29
2023-04-15T22:51:24.187Z,95.60
2023-04-15T22:53:56.050Z,95.88
2023-04-15T22:56:27.324Z,95.69
2023-04-15T22:58:58.616Z,95.49
2023-04-15T23:01:31.845Z,95.57
2023-04-15T23:04:04.668Z,95.81
2023-04-15T23:06:39.830Z,95.70
2023-04-15T23:09:11.359Z,95.88
2023-04-15T23:11:42.817Z,95.69
2023-04-15T23:14:14.102Z,96.11
2023-04-15T23:16:45.613Z,96.27
2023-04-15T23:19:16.948Z,96.18
2023-04-15T23:21:48.435Z,96.37
2023-04-15T23:24:19.730Z,96.12
2023-04-15T23:26:52.858Z,96.20
2023-04-15T23:29:24.222Z,96.23
2023-04-15T23:31:56.792Z,96.17
2023-04-15T23:34:28.250Z,96.32
2023-04-15T23:36:59.519Z,96.90
2023-04-15T23:39:31.047Z,96.44
2023-04-15T23:42:03.260Z,96.61
2023-04-15T23:44:34.566Z,97.03
2023-04-15T23:47:05.974Z,96.63
2023-04-15T23:49:37.275Z,96.87
2023-04-15T23:52:08.620Z,96.72
2023-04-15T23:54:39.887Z,96.29
2023-04-15T23:57:11.213Z,96.67
2023-04-15T23:59:42.607Z,96.05
